createdAt,value
2017-09-30T00:00:44.843Z,92.29
2017-09-30T00:01:44.838Z,92.29
2017-09-30T00:02:44.804Z,92.29
2017-09-30T00:03:44.785Z,92.29
2017-09-30T00:04:44.456Z,92.77
2017-09-30T00:05:44.742Z,92.68
2017-09-30T00:06:44.722Z,92.68
2017-09-30T00:07:44.700Z,92.39
2017-09-30T00:08:44.680Z,92.58
2017-09-30T00:09:44.667Z,92.68
2017-09-30T00:10:44.331Z,92.68
2017-09-30T00:11:44.616Z,92.68
2017-09-30T00:12:44.598Z,92.68
2017-09-30T00:13:44.582Z,92.58
2017-09-30T00:14:44.252Z,92.29
2017-09-30T00:15:44.534Z,92.39
2017-09-30T00:16:44.220Z,92.39
2017-09-30T00:17:44.543Z,92.96
2017-09-30T00:18:44.214Z,93.15
2017-09-30T00:19:44.450Z,92.96
2017-09-30T00:20:44.125Z,92.77
2017-09-30T00:21:44.417Z,93.01
2017-09-30T00:22:44.395Z,92.86
2017-09-30T00:23:44.061Z,93.06
2017-09-30T00:24:44.349Z,93.21
2017-09-30T00:25:44.334Z,92.82
2017-09-30T00:26:44.023Z,92.91
2017-09-30T00:27:44.288Z,93.11
2017-09-30T00:28:44.270Z,93.3
2017-09-30T00:29:44.243Z,93.21
2017-09-30T00:30:43.920Z,93.11
2017-09-30T00:31:44.208Z,93.01
2017-09-30T00:32:44.240Z,92.91
2017-09-30T00:33:44.163Z,92.91
2017-09-30T00:34:44.146Z,92.82
2017-09-30T00:35:43.816Z,92.91
2017-09-30T00:36:44.099Z,92.91
2017-09-30T00:37:44.082Z,92.72
2017-09-30T00:38:44.057Z,92.72
2017-09-30T00:39:44.034Z,93.49
2017-09-30T00:40:44.014Z,93.49
2017-09-30T00:41:43.994Z,93.3
2017-09-30T00:42:43.974Z,93.49
2017-09-30T00:43:43.951Z,93.01
2017-09-30T00:44:43.628Z,93.01
2017-09-30T00:45:43.606Z,93.11
2017-09-30T00:46:43.885Z,93.21
2017-09-30T00:47:43.563Z,92.91
2017-09-30T00:48:43.851Z,93.4
2017-09-30T00:49:43.525Z,93.3
2017-09-30T00:50:43.811Z,93.3
2017-09-30T00:51:43.846Z,93.3
2017-09-30T00:52:43.767Z,93.3
2017-09-30T00:53:43.454Z,93.49
2017-09-30T00:54:43.721Z,93.4
2017-09-30T00:55:43.706Z,93.4
2017-09-30T00:56:43.687Z,93.11
2017-09-30T00:57:43.356Z,93.78
2017-09-30T00:58:43.654Z,93.21
2017-09-30T00:59:43.619Z,93.78
2017-09-30T01:00:43.296Z,93.3
2017-09-30T01:01:43.581Z,93.49
2017-09-30T01:02:43.299Z,93.3
2017-09-30T01:03:43.233Z,93.59
2017-09-30T01:04:43.520Z,93.49
2017-09-30T01:05:43.496Z,93.4
2017-09-30T01:06:43.478Z,93.3
2017-09-30T01:07:43.458Z,93.3
2017-09-30T01:08:43.438Z,93.44
2017-09-30T01:09:43.105Z,93.4
2017-09-30T01:10:43.135Z,93.68
2017-09-30T01:11:43.370Z,93.73
2017-09-30T01:12:43.356Z,93.21
2017-09-30T01:13:43.334Z,93.3
2017-09-30T01:14:43.313Z,93.11
2017-09-30T01:15:43.287Z,93.25
2017-09-30T01:16:43.272Z,93.15
2017-09-30T01:17:43.300Z,93.35
2017-09-30T01:18:43.232Z,93.15
2017-09-30T01:19:43.205Z,93.35
2017-09-30T01:20:43.188Z,93.25
2017-09-30T01:21:43.162Z,93.15
2017-09-30T01:22:42.837Z,93.54
2017-09-30T01:23:43.126Z,93.15
2017-09-30T01:24:43.103Z,93.25
2017-09-30T01:25:43.083Z,93.15
2017-09-30T01:26:43.066Z,93.54
2017-09-30T01:27:43.071Z,93.15
2017-09-30T01:28:43.018Z,93.54
2017-09-30T01:29:42.993Z,93.35
2017-09-30T01:30:42.979Z,93.44
2017-09-30T01:31:42.961Z,94.12
2017-09-30T01:32:42.938Z,93.82
2017-09-30T01:33:42.940Z,93.82
2017-09-30T01:34:42.892Z,93.59
2017-09-30T01:35:42.872Z,93.49
2017-09-30T01:36:42.852Z,93.59
2017-09-30T01:37:42.840Z,93.97
2017-09-30T01:38:42.812Z,94.07
2017-09-30T01:39:42.791Z,94.07
2017-09-30T01:40:42.768Z,94.07
2017-09-30T01:41:42.770Z,94.45
2017-09-30T01:42:42.729Z,94.54
2017-09-30T01:43:42.706Z,94.35
2017-09-30T01:44:42.739Z,94.35
2017-09-30T01:45:42.667Z,94.17
2017-09-30T01:46:42.640Z,94.54
2017-09-30T01:47:42.623Z,94.54
2017-09-30T01:48:42.599Z,94.54
2017-09-30T01:49:42.578Z,94.45
2017-09-30T01:50:42.559Z,94.54
2017-09-30T01:51:42.544Z,94.45
2017-09-30T01:52:42.516Z,94.54
2017-09-30T01:53:42.503Z,94.93
2017-09-30T01:54:42.478Z,94.84
2017-09-30T01:55:42.453Z,94.54
2017-09-30T01:56:42.433Z,94.74
2017-09-30T01:57:42.406Z,94.54
2017-09-30T01:58:42.391Z,94.74
2017-09-30T01:59:42.368Z,94.59
2017-09-30T02:00:42.347Z,94.98
2017-09-30T02:01:42.326Z,95.07
2017-09-30T02:02:42.304Z,94.89
2017-09-30T02:03:42.285Z,94.89
2017-09-30T02:04:42.264Z,94.79
2017-09-30T02:05:42.238Z,95.07
2017-09-30T02:06:42.220Z,94.89
2017-09-30T02:07:42.249Z,95.26
2017-09-30T02:08:42.179Z,94.93
2017-09-30T02:09:42.204Z,94.98
2017-09-30T02:10:42.138Z,94.89
2017-09-30T02:11:42.112Z,95.31
2017-09-30T02:12:42.095Z,95.41
2017-09-30T02:13:42.075Z,95.41
2017-09-30T02:14:42.051Z,95.6
2017-09-30T02:15:42.027Z,95.41
2017-09-30T02:16:42.007Z,95.7
2017-09-30T02:17:41.991Z,95.51
2017-09-30T02:18:41.963Z,95.41
2017-09-30T02:19:42.000Z,95.51
2017-09-30T02:20:41.922Z,95.41
2017-09-30T02:21:41.905Z,95.6
2017-09-30T02:22:41.883Z,95.6
2017-09-30T02:23:41.863Z,95.41
2017-09-30T02:24:41.840Z,95.41
2017-09-30T02:25:41.812Z,95.6
2017-09-30T02:26:41.797Z,95.6
2017-09-30T02:27:41.466Z,95.12
2017-09-30T02:28:41.753Z,95.12
2017-09-30T02:29:41.730Z,95.36
2017-09-30T02:30:41.706Z,95.26
2017-09-30T02:31:41.687Z,95.46
2017-09-30T02:32:41.667Z,95.36
2017-09-30T02:33:41.648Z,95.51
2017-09-30T02:34:41.622Z,95.56
2017-09-30T02:35:41.604Z,95.56
2017-09-30T02:36:41.593Z,95.41
2017-09-30T02:37:41.562Z,95.36
2017-09-30T02:38:41.537Z,95.12
2017-09-30T02:39:41.518Z,95.65
2017-09-30T02:40:41.497Z,95.79
2017-09-30T02:41:41.477Z,95.84
2017-09-30T02:42:41.454Z,95.94
2017-09-30T02:43:41.438Z,95.65
2017-09-30T02:44:41.413Z,95.84
2017-09-30T02:45:41.392Z,95.84
2017-09-30T02:46:41.367Z,96.03
2017-09-30T02:47:41.346Z,96.32
2017-09-30T02:48:41.329Z,96.22
2017-09-30T02:49:41.303Z,96.42
2017-09-30T02:50:41.288Z,95.94
2017-09-30T02:51:41.265Z,96.13
2017-09-30T02:52:41.242Z,95.84
2017-09-30T02:53:41.218Z,96.51
2017-09-30T02:54:41.205Z,96.22
2017-09-30T02:55:41.177Z,96.32
2017-09-30T02:56:41.156Z,96.32
2017-09-30T02:57:41.137Z,96.32
2017-09-30T02:58:41.120Z,96.61
2017-09-30T02:59:41.093Z,96.8
2017-09-30T03:00:41.070Z,96.99
2017-09-30T03:01:41.050Z,96.89
2017-09-30T03:02:41.034Z,96.89
2017-09-30T03:03:41.010Z,96.22
2017-09-30T03:04:40.991Z,97.18
2017-09-30T03:05:40.961Z,96.89
2017-09-30T03:06:40.942Z,96.8
2017-09-30T03:07:40.921Z,96.7
2017-09-30T03:08:40.910Z,96.8
2017-09-30T03:09:40.883Z,96.8
2017-09-30T03:10:40.855Z,96.61
2017-09-30T03:11:40.834Z,96.61
2017-09-30T03:12:40.814Z,96.61
2017-09-30T03:13:40.793Z,96.89
2017-09-30T03:14:40.769Z,96.89
2017-09-30T03:15:40.751Z,96.89
2017-09-30T03:16:40.733Z,97.38
2017-09-30T03:17:40.713Z,96.8
2017-09-30T03:18:40.693Z,97.38
2017-09-30T03:19:40.731Z,97.38
2017-09-30T03:20:40.650Z,97.38
2017-09-30T03:21:40.624Z,96.99
2017-09-30T03:22:40.605Z,97.18
2017-09-30T03:23:40.578Z,97.28
2017-09-30T03:24:40.558Z,97.28
2017-09-30T03:25:40.545Z,97.18
2017-09-30T03:26:40.518Z,97.09
2017-09-30T03:27:40.497Z,97.09
2017-09-30T03:28:40.482Z,97.28
2017-09-30T03:29:40.454Z,96.99
2017-09-30T03:30:40.431Z,96.99
2017-09-30T03:31:40.410Z,97.09
2017-09-30T03:32:40.089Z,96.99
2017-09-30T03:33:40.377Z,97.09
2017-09-30T03:34:40.350Z,97.28
2017-09-30T03:35:40.325Z,97.18
2017-09-30T03:36:40.304Z,97.38
2017-09-30T03:37:40.285Z,97.56
2017-09-30T03:38:40.264Z,97.56
2017-09-30T03:39:40.242Z,97.56
2017-09-30T03:40:40.225Z,97.38
2017-09-30T03:41:40.204Z,97.76
2017-09-30T03:42:40.181Z,97.85
2017-09-30T03:43:40.157Z,97.56
2017-09-30T03:44:40.138Z,97.56
2017-09-30T03:45:40.111Z,97.95
2017-09-30T03:46:40.094Z,97.47
2017-09-30T03:47:40.074Z,97.76
2017-09-30T03:48:40.055Z,97.66
2017-09-30T03:49:40.036Z,97.38
2017-09-30T03:50:40.010Z,97.66
2017-09-30T03:51:39.989Z,97.76
2017-09-30T03:52:39.964Z,97.56
2017-09-30T03:53:39.966Z,97.9
2017-09-30T03:54:39.927Z,97.28
2017-09-30T03:55:39.902Z,96.89
2017-09-30T03:56:39.885Z,97.28
2017-09-30T03:57:39.864Z,97.28
2017-09-30T03:58:39.840Z,97.85
2017-09-30T03:59:39.814Z,97.28
2017-09-30T04:00:39.799Z,97.38
2017-09-30T04:01:39.775Z,97.47
2017-09-30T04:02:39.758Z,97.28
2017-09-30T04:03:39.731Z,97.56
2017-09-30T04:04:39.711Z,97.76
2017-09-30T04:05:39.685Z,97.38
2017-09-30T04:06:39.714Z,97.56
2017-09-30T04:07:39.702Z,97.71
2017-09-30T04:08:39.625Z,97.52
2017-09-30T04:09:39.616Z,97.56
2017-09-30T04:10:39.582Z,97.56
2017-09-30T04:11:39.572Z,97.42
2017-09-30T04:12:39.550Z,97.56
2017-09-30T04:13:39.519Z,97.23
2017-09-30T04:14:39.497Z,97.52
2017-09-30T04:15:39.479Z,97.33
2017-09-30T04:16:39.462Z,97.33
2017-09-30T04:17:39.455Z,97.23
2017-09-30T04:18:39.420Z,98
2017-09-30T04:19:39.398Z,98
2017-09-30T04:20:39.380Z,98.38
2017-09-30T04:21:39.351Z,97.8
2017-09-30T04:22:39.354Z,98
2017-09-30T04:23:39.313Z,98
2017-09-30T04:24:39.287Z,98.1
2017-09-30T04:25:39.266Z,98
2017-09-30T04:26:39.242Z,97.52
2017-09-30T04:27:39.233Z,97.71
2017-09-30T04:28:39.206Z,97.9
2017-09-30T04:29:39.179Z,98
2017-09-30T04:30:39.156Z,97.71
2017-09-30T04:31:39.143Z,98.19
2017-09-30T04:32:39.130Z,97.61
2017-09-30T04:33:39.095Z,97.9
2017-09-30T04:34:39.072Z,98
2017-09-30T04:35:39.054Z,98.28
2017-09-30T04:36:39.029Z,98.28
2017-09-30T04:37:39.009Z,98.1
2017-09-30T04:38:38.993Z,98
2017-09-30T04:39:38.969Z,98.1
2017-09-30T04:40:38.948Z,97.8
2017-09-30T04:41:38.923Z,97.9
2017-09-30T04:42:38.904Z,98
2017-09-30T04:43:38.882Z,98.38
2017-09-30T04:44:38.864Z,98
2017-09-30T04:45:38.840Z,98.28
2017-09-30T04:46:38.817Z,98
2017-09-30T04:47:38.804Z,97.61
2017-09-30T04:48:38.777Z,97.9
2017-09-30T04:49:38.449Z,97.9
2017-09-30T04:50:38.734Z,98.1
2017-09-30T04:51:38.714Z,97.8
2017-09-30T04:52:38.689Z,97.71
2017-09-30T04:53:38.666Z,98.1
2017-09-30T04:54:38.651Z,98
2017-09-30T04:55:38.625Z,98.67
2017-09-30T04:56:38.602Z,98.57
2017-09-30T04:57:38.581Z,98.38
2017-09-30T04:58:38.565Z,98.57
2017-09-30T04:59:38.545Z,98.57
2017-09-30T05:00:38.520Z,98.47
2017-09-30T05:01:38.498Z,98.38
2017-09-30T05:02:38.473Z,98.19
2017-09-30T05:03:38.454Z,98.38
2017-09-30T05:04:38.435Z,98.57
2017-09-30T05:05:38.417Z,98.76
2017-09-30T05:06:38.083Z,98.96
2017-09-30T05:07:38.371Z,98.96
2017-09-30T05:08:38.356Z,99.15
2017-09-30T05:09:38.327Z,99.15
2017-09-30T05:10:38.304Z,99.15
2017-09-30T05:11:38.287Z,99.05
2017-09-30T05:12:38.270Z,99.24
2017-09-30T05:13:38.240Z,98.96
2017-09-30T05:14:38.216Z,99.15
2017-09-30T05:15:38.203Z,99.34
2017-09-30T05:16:38.185Z,99.15
2017-09-30T05:17:38.157Z,99.34
2017-09-30T05:18:38.138Z,99.15
2017-09-30T05:19:38.115Z,98.96
2017-09-30T05:20:38.091Z,99.05
2017-09-30T05:21:38.071Z,99.15
2017-09-30T05:22:38.049Z,98.86
2017-09-30T05:23:38.026Z,99.43
2017-09-30T05:24:38.004Z,98.81
2017-09-30T05:25:37.984Z,99.24
2017-09-30T05:26:37.964Z,99.43
2017-09-30T05:27:37.946Z,98.96
2017-09-30T05:28:37.930Z,99.05
2017-09-30T05:29:37.899Z,99.15
2017-09-30T05:30:37.877Z,99.05
2017-09-30T05:31:37.858Z,99.43
2017-09-30T05:32:37.835Z,99.38
2017-09-30T05:33:37.863Z,99.43
2017-09-30T05:34:37.796Z,99.43
2017-09-30T05:35:37.769Z,99.43
2017-09-30T05:36:37.808Z,99.24
2017-09-30T05:37:37.726Z,99.87
2017-09-30T05:38:37.707Z,99.96
2017-09-30T05:39:37.682Z,99.99
2017-09-30T05:40:37.665Z,99.99
2017-09-30T05:41:37.642Z,99.58
2017-09-30T05:42:37.623Z,99.77
2017-09-30T05:43:37.601Z,99.99
2017-09-30T05:44:37.580Z,99.72
2017-09-30T05:45:37.581Z,99.72
2017-09-30T05:46:37.535Z,99.58
2017-09-30T05:47:37.518Z,99.96
2017-09-30T05:48:37.497Z,99.67
2017-09-30T05:49:37.477Z,99.87
2017-09-30T05:50:37.454Z,99.96
2017-09-30T05:51:37.425Z,99.67
2017-09-30T05:52:37.404Z,99.99
2017-09-30T05:53:37.386Z,99.99
2017-09-30T05:54:37.367Z,99.82
2017-09-30T05:55:37.343Z,99.99
2017-09-30T05:56:37.321Z,99.99
2017-09-30T05:57:37.298Z,99.99
2017-09-30T05:58:37.292Z,99.87
2017-09-30T05:59:37.260Z,99.99
2017-09-30T06:00:36.932Z,99.99
2017-09-30T06:01:37.216Z,99.99
2017-09-30T06:02:37.194Z,99.87
2017-09-30T06:03:37.173Z,99.96
2017-09-30T06:04:37.152Z,99.99
2017-09-30T06:05:37.129Z,99.99
2017-09-30T06:06:36.806Z,99.87
2017-09-30T06:07:37.082Z,99.99
2017-09-30T06:08:37.067Z,99.99
2017-09-30T06:09:37.041Z,99.58
2017-09-30T06:10:37.028Z,99.58
2017-09-30T06:11:37.001Z,99.87
2017-09-30T06:12:36.978Z,99.87
2017-09-30T06:13:36.961Z,99.96
2017-09-30T06:14:36.932Z,99.99
2017-09-30T06:15:36.919Z,99.77
2017-09-30T06:16:36.895Z,99.96
2017-09-30T06:17:36.874Z,99.99
2017-09-30T06:18:36.853Z,99.99
2017-09-30T06:19:36.830Z,99.99
2017-09-30T06:20:36.813Z,99.99
2017-09-30T06:21:36.791Z,99.99
2017-09-30T06:22:36.791Z,99.99
2017-09-30T06:23:36.441Z,99.99
2017-09-30T06:24:36.721Z,99.99
2017-09-30T06:25:36.702Z,99.99
2017-09-30T06:26:36.681Z,99.99
2017-09-30T06:27:36.664Z,99.99
2017-09-30T06:28:36.335Z,99.99
2017-09-30T06:29:36.618Z,99.99
2017-09-30T06:30:36.596Z,99.99
2017-09-30T06:31:36.573Z,99.99
2017-09-30T06:32:36.560Z,99.99
2017-09-30T06:33:36.535Z,99.99
2017-09-30T06:34:36.513Z,99.99
2017-09-30T06:35:36.490Z,99.99
2017-09-30T06:36:36.473Z,99.99
2017-09-30T06:37:36.446Z,99.99
2017-09-30T06:38:36.474Z,99.99
2017-09-30T06:39:36.407Z,99.99
2017-09-30T06:40:36.384Z,99.99
2017-09-30T06:41:36.364Z,99.99
2017-09-30T06:42:36.337Z,99.99
2017-09-30T06:43:36.320Z,99.99
2017-09-30T06:44:36.299Z,99.99
2017-09-30T06:45:36.276Z,99.99
2017-09-30T06:46:36.272Z,99.99
2017-09-30T06:47:36.233Z,99.99
2017-09-30T06:48:36.212Z,99.99
2017-09-30T06:49:36.195Z,99.99
2017-09-30T06:50:36.176Z,99.99
2017-09-30T06:51:36.151Z,99.99
2017-09-30T06:52:36.129Z,99.99
2017-09-30T06:53:36.110Z,99.99
2017-09-30T06:54:36.095Z,99.99
2017-09-30T06:55:36.066Z,99.99
2017-09-30T06:56:36.041Z,99.99
2017-09-30T06:57:36.019Z,99.99
2017-09-30T06:58:36.048Z,99.99
2017-09-30T06:59:35.674Z,99.99
2017-09-30T07:00:35.958Z,99.99
2017-09-30T07:01:35.643Z,99.99
2017-09-30T07:02:35.917Z,99.99
2017-09-30T07:03:35.896Z,99.99
2017-09-30T07:04:35.871Z,99.99
2017-09-30T07:05:35.860Z,99.99
2017-09-30T07:06:35.836Z,99.99
2017-09-30T07:07:35.816Z,99.77
2017-09-30T07:08:35.796Z,99.99
2017-09-30T07:09:35.773Z,99.99
2017-09-30T07:10:35.748Z,99.96
2017-09-30T07:11:35.725Z,99.96
2017-09-30T07:12:35.712Z,99.99
2017-09-30T07:13:35.381Z,99.99
2017-09-30T07:14:35.668Z,99.87
2017-09-30T07:15:35.645Z,99.96
2017-09-30T07:16:35.624Z,99.96
2017-09-30T07:17:35.614Z,99.77
2017-09-30T07:18:35.586Z,99.77
2017-09-30T07:19:35.561Z,99.19
2017-09-30T07:20:35.543Z,99.48
2017-09-30T07:21:35.527Z,99.48
2017-09-30T07:22:35.498Z,99.29
2017-09-30T07:23:35.477Z,99.48
2017-09-30T07:24:35.457Z,99.39
2017-09-30T07:25:35.433Z,99.68
2017-09-30T07:26:35.417Z,99.01
2017-09-30T07:27:35.395Z,98.91
2017-09-30T07:28:35.376Z,98.81
2017-09-30T07:29:35.353Z,99.01
2017-09-30T07:30:35.331Z,99.01
2017-09-30T07:31:35.319Z,99.39
2017-09-30T07:32:35.289Z,98.91
2017-09-30T07:33:35.273Z,99.19
2017-09-30T07:34:35.250Z,99.39
2017-09-30T07:35:35.231Z,99.01
2017-09-30T07:36:35.209Z,99.39
2017-09-30T07:37:35.241Z,98.62
2017-09-30T07:38:35.168Z,98.81
2017-09-30T07:39:35.146Z,98.77
2017-09-30T07:40:35.124Z,98.43
2017-09-30T07:41:35.106Z,98.52
2017-09-30T07:42:35.090Z,98.33
2017-09-30T07:43:35.063Z,98.52
2017-09-30T07:44:35.039Z,98.52
2017-09-30T07:45:35.027Z,98.48
2017-09-30T07:46:35.002Z,98.48
2017-09-30T07:47:34.983Z,98.48
2017-09-30T07:48:34.956Z,98.52
2017-09-30T07:49:34.941Z,98.67
2017-09-30T07:50:34.917Z,98.48
2017-09-30T07:51:34.903Z,98.19
2017-09-30T07:52:34.871Z,97.76
2017-09-30T07:53:34.869Z,97.95
2017-09-30T07:54:34.834Z,98.05
2017-09-30T07:55:34.810Z,98.1
2017-09-30T07:56:34.790Z,98.14
2017-09-30T07:57:34.458Z,97.9
2017-09-30T07:58:34.751Z,98.05
2017-09-30T07:59:34.728Z,97.81
2017-09-30T08:00:34.707Z,98.1
2017-09-30T08:01:34.688Z,97.61
2017-09-30T08:02:34.666Z,98.14
2017-09-30T08:03:34.652Z,97.18
2017-09-30T08:04:34.626Z,97.95
2017-09-30T08:05:34.607Z,97.76
2017-09-30T08:06:34.583Z,97.66
2017-09-30T08:07:34.568Z,98.14
2017-09-30T08:08:34.234Z,97.95
2017-09-30T08:09:34.530Z,98.43
2017-09-30T08:10:34.500Z,98.14
2017-09-30T08:11:34.484Z,97.56
2017-09-30T08:12:34.459Z,98
2017-09-30T08:13:34.439Z,97.38
2017-09-30T08:14:34.112Z,97.18
2017-09-30T08:15:34.396Z,97.47
2017-09-30T08:16:34.375Z,97.47
2017-09-30T08:17:34.403Z,97.38
2017-09-30T08:18:34.327Z,97.38
2017-09-30T08:19:34.312Z,97.42
2017-09-30T08:20:34.295Z,97.47
2017-09-30T08:21:34.274Z,97.47
2017-09-30T08:22:34.255Z,97.81
2017-09-30T08:23:34.230Z,97.52
2017-09-30T08:24:34.254Z,97.47
2017-09-30T08:25:34.188Z,97.76
2017-09-30T08:26:34.167Z,97.47
2017-09-30T08:27:34.143Z,97.76
2017-09-30T08:28:34.129Z,97.47
2017-09-30T08:29:34.105Z,97.56
2017-09-30T08:30:34.091Z,97.66
2017-09-30T08:31:33.753Z,97.76
2017-09-30T08:32:34.040Z,97.38
2017-09-30T08:33:34.021Z,97.61
2017-09-30T08:34:34.010Z,97.38
2017-09-30T08:35:33.978Z,97.28
2017-09-30T08:36:34.002Z,97.18
2017-09-30T08:37:33.936Z,97.28
2017-09-30T08:38:33.915Z,97.09
2017-09-30T08:39:33.897Z,97.28
2017-09-30T08:40:33.877Z,97.38
2017-09-30T08:41:33.863Z,97.47
2017-09-30T08:42:33.832Z,97.23
2017-09-30T08:43:33.821Z,97.04
2017-09-30T08:44:33.791Z,96.85
2017-09-30T08:45:33.770Z,97.14
2017-09-30T08:46:33.749Z,97.33
2017-09-30T08:47:33.733Z,97.23
2017-09-30T08:48:33.709Z,96.85
2017-09-30T08:49:33.695Z,97.14
2017-09-30T08:50:33.667Z,96.66
2017-09-30T08:51:33.649Z,96.85
2017-09-30T08:52:33.625Z,96.32
2017-09-30T08:53:33.606Z,96.89
2017-09-30T08:54:33.584Z,96.51
2017-09-30T08:55:33.580Z,96.42
2017-09-30T08:56:33.552Z,96.03
2017-09-30T08:57:33.525Z,96.13
2017-09-30T08:58:33.500Z,96.22
2017-09-30T08:59:33.498Z,95.75
2017-09-30T09:00:33.463Z,95.65
2017-09-30T09:01:33.441Z,95.26
2017-09-30T09:02:33.422Z,95.36
2017-09-30T09:03:33.403Z,95.07
2017-09-30T09:04:33.381Z,95.07
2017-09-30T09:05:33.356Z,95.65
2017-09-30T09:06:33.344Z,95.55
2017-09-30T09:07:33.315Z,95.41
2017-09-30T09:08:33.298Z,95.55
2017-09-30T09:09:33.275Z,95.31
2017-09-30T09:10:33.258Z,95.31
2017-09-30T09:11:33.241Z,95.51
2017-09-30T09:12:33.219Z,94.93
2017-09-30T09:13:33.196Z,95.21
2017-09-30T09:14:33.179Z,95.03
2017-09-30T09:15:33.159Z,94.98
2017-09-30T09:16:33.136Z,94.93
2017-09-30T09:17:33.109Z,94.93
2017-09-30T09:18:33.095Z,94.93
2017-09-30T09:19:33.074Z,95.03
2017-09-30T09:20:33.053Z,95.12
2017-09-30T09:21:33.036Z,94.74
2017-09-30T09:22:33.010Z,94.93
2017-09-30T09:23:32.995Z,94.49
2017-09-30T09:24:32.970Z,94.45
2017-09-30T09:25:32.949Z,94.26
2017-09-30T09:26:32.928Z,94.54
2017-09-30T09:27:32.924Z,94.4
2017-09-30T09:28:32.889Z,94.84
2017-09-30T09:29:32.862Z,94.79
2017-09-30T09:30:32.843Z,94.4
2017-09-30T09:31:32.827Z,94.4
2017-09-30T09:32:32.805Z,94.31
2017-09-30T09:33:32.784Z,94.4
2017-09-30T09:34:32.816Z,94.4
2017-09-30T09:35:32.751Z,94.31
2017-09-30T09:36:32.718Z,94.49
2017-09-30T09:37:32.701Z,94.4
2017-09-30T09:38:32.681Z,94.49
2017-09-30T09:39:32.664Z,94.59
2017-09-30T09:40:32.657Z,94.02
2017-09-30T09:41:32.620Z,94.59
2017-09-30T09:42:32.596Z,94.12
2017-09-30T09:43:32.582Z,94.12
2017-09-30T09:44:32.552Z,94.49
2017-09-30T09:45:32.585Z,94.4
2017-09-30T09:46:32.516Z,94.4
2017-09-30T09:47:32.501Z,93.73
2017-09-30T09:48:32.479Z,94.4
2017-09-30T09:49:32.458Z,94.31
2017-09-30T09:50:32.442Z,94.21
2017-09-30T09:51:32.417Z,94.12
2017-09-30T09:52:32.398Z,93.97
2017-09-30T09:53:32.431Z,94.02
2017-09-30T09:54:32.406Z,94.16
2017-09-30T09:55:32.334Z,93.35
2017-09-30T09:56:32.338Z,93.59
2017-09-30T09:57:32.294Z,93.92
2017-09-30T09:58:32.276Z,93.87
2017-09-30T09:59:32.253Z,93.92
2017-09-30T10:00:32.235Z,93.92
2017-09-30T10:01:32.205Z,93.92
2017-09-30T10:02:32.192Z,93.82
2017-09-30T10:03:32.175Z,93.82
2017-09-30T10:04:32.150Z,93.82
2017-09-30T10:05:32.139Z,93.73
2017-09-30T10:06:32.108Z,93.63
2017-09-30T10:07:32.091Z,93.73
2017-09-30T10:08:32.081Z,93.82
2017-09-30T10:09:32.048Z,93.92
2017-09-30T10:10:32.035Z,93.73
2017-09-30T10:11:32.008Z,93.92
2017-09-30T10:12:31.984Z,93.82
2017-09-30T10:13:31.970Z,93.63
2017-09-30T10:14:31.953Z,94.12
2017-09-30T10:15:31.927Z,94.12
2017-09-30T10:16:31.903Z,94.21
2017-09-30T10:17:31.884Z,93.92
2017-09-30T10:18:31.867Z,93.92
2017-09-30T10:19:31.849Z,94.21
2017-09-30T10:20:31.823Z,94.21
2017-09-30T10:21:31.798Z,94.12
2017-09-30T10:22:31.782Z,93.92
2017-09-30T10:23:31.763Z,94.12
2017-09-30T10:24:31.676Z,93.92
2017-09-30T10:25:31.723Z,94.12
2017-09-30T10:26:31.699Z,94.21
2017-09-30T10:27:31.680Z,94.02
2017-09-30T10:28:31.661Z,94.12
2017-09-30T10:29:31.641Z,94.12
2017-09-30T10:30:31.616Z,94.02
2017-09-30T10:31:31.600Z,94.16
2017-09-30T10:32:31.580Z,94.49
2017-09-30T10:33:31.248Z,94.35
2017-09-30T10:34:31.542Z,94.64
2017-09-30T10:35:31.516Z,94.45
2017-09-30T10:36:31.492Z,93.97
2017-09-30T10:37:31.475Z,94.26
2017-09-30T10:38:31.454Z,94.16
2017-09-30T10:39:31.435Z,94.26
2017-09-30T10:40:31.414Z,94.35
2017-09-30T10:41:31.395Z,94.45
2017-09-30T10:42:31.374Z,93.97
2017-09-30T10:43:31.357Z,94.35
2017-09-30T10:44:31.346Z,94.26
2017-09-30T10:45:31.314Z,94.45
2017-09-30T10:46:31.292Z,94.45
2017-09-30T10:47:30.965Z,93.97
2017-09-30T10:48:31.252Z,94.16
2017-09-30T10:49:31.237Z,94.26
2017-09-30T10:50:31.211Z,93.87
2017-09-30T10:51:31.188Z,93.59
2017-09-30T10:52:31.180Z,93.49
2017-09-30T10:53:31.148Z,93.59
2017-09-30T10:54:31.135Z,93.59
2017-09-30T10:55:31.118Z,93.25
2017-09-30T10:56:31.095Z,93.77
2017-09-30T10:57:31.070Z,93.82
2017-09-30T10:58:31.050Z,93.68
2017-09-30T10:59:31.031Z,94.12
2017-09-30T11:00:31.008Z,93.77
2017-09-30T11:01:30.989Z,93.87
2017-09-30T11:02:30.978Z,93.97
2017-09-30T11:03:30.952Z,94.16
2017-09-30T11:04:30.617Z,93.97
2017-09-30T11:05:30.906Z,93.87
2017-09-30T11:06:30.899Z,93.87
2017-09-30T11:07:30.869Z,93.87
2017-09-30T11:08:30.856Z,93.59
2017-09-30T11:09:30.828Z,93.3
2017-09-30T11:10:30.811Z,93.68
2017-09-30T11:11:30.786Z,93.59
2017-09-30T11:12:30.770Z,93.49
2017-09-30T11:13:30.746Z,93.68
2017-09-30T11:14:30.728Z,93.68
2017-09-30T11:15:30.707Z,93.77
2017-09-30T11:16:30.689Z,93.39
2017-09-30T11:17:30.668Z,93.59
2017-09-30T11:18:30.645Z,93.59
2017-09-30T11:19:30.623Z,93.68
2017-09-30T11:20:30.606Z,93.97
2017-09-30T11:21:30.588Z,93.77
2017-09-30T11:22:30.577Z,93.87
2017-09-30T11:23:30.546Z,93.97
2017-09-30T11:24:30.525Z,93.87
2017-09-30T11:25:30.505Z,93.39
2017-09-30T11:26:30.479Z,93.97
2017-09-30T11:27:30.473Z,93.82
2017-09-30T11:28:30.136Z,94.02
2017-09-30T11:29:30.427Z,93.54
2017-09-30T11:30:30.103Z,93.82
2017-09-30T11:31:30.388Z,93.54
2017-09-30T11:32:30.363Z,93.54
2017-09-30T11:33:30.341Z,93.63
2017-09-30T11:34:30.323Z,93.35
2017-09-30T11:35:30.307Z,93.63
2017-09-30T11:36:30.280Z,93.82
2017-09-30T11:37:30.259Z,94.21
2017-09-30T11:38:30.242Z,93.92
2017-09-30T11:39:30.224Z,94.26
2017-09-30T11:40:30.200Z,93.82
2017-09-30T11:41:30.184Z,93.59
2017-09-30T11:42:30.167Z,93.87
2017-09-30T11:43:30.146Z,93.77
2017-09-30T11:44:30.119Z,93.49
2017-09-30T11:45:29.791Z,93.54
2017-09-30T11:46:30.078Z,93.54
2017-09-30T11:47:30.069Z,93.63
2017-09-30T11:48:30.036Z,94.21
2017-09-30T11:49:29.710Z,94.07
2017-09-30T11:50:29.993Z,94.02
2017-09-30T11:51:29.978Z,94.07
2017-09-30T11:52:29.645Z,94.12
2017-09-30T11:53:29.944Z,94.12
2017-09-30T11:54:29.922Z,93.92
2017-09-30T11:55:29.896Z,93.92
2017-09-30T11:56:29.877Z,94.02
2017-09-30T11:57:29.854Z,94.12
2017-09-30T11:58:29.835Z,94.4
2017-09-30T11:59:29.813Z,94.26
2017-09-30T12:00:29.791Z,94.35
2017-09-30T12:01:29.789Z,94.49
2017-09-30T12:02:29.751Z,94.26
2017-09-30T12:03:29.731Z,94.4
2017-09-30T12:04:29.708Z,94.31
2017-09-30T12:05:29.701Z,94.31
2017-09-30T12:06:29.675Z,94.31
2017-09-30T12:07:29.651Z,94.64
2017-09-30T12:08:29.633Z,94.49
2017-09-30T12:09:29.298Z,94.31
2017-09-30T12:10:29.586Z,94.21
2017-09-30T12:11:29.569Z,94.54
2017-09-30T12:12:29.544Z,94.31
2017-09-30T12:13:29.521Z,94.45
2017-09-30T12:14:29.502Z,94.31
2017-09-30T12:15:29.483Z,94.54
2017-09-30T12:16:29.472Z,94.35
2017-09-30T12:17:29.444Z,94.45
2017-09-30T12:18:29.424Z,94.35
2017-09-30T12:19:29.406Z,94.64
2017-09-30T12:20:29.379Z,94.16
2017-09-30T12:21:29.365Z,94.35
2017-09-30T12:22:29.349Z,94.54
2017-09-30T12:23:29.320Z,94.83
2017-09-30T12:24:29.295Z,94.74
2017-09-30T12:25:29.280Z,94.83
2017-09-30T12:26:29.259Z,94.45
2017-09-30T12:27:29.239Z,94.45
2017-09-30T12:28:29.350Z,94.98
2017-09-30T12:29:29.193Z,95.12
2017-09-30T12:30:29.172Z,95.55
2017-09-30T12:31:29.156Z,95.21
2017-09-30T12:32:29.134Z,95.65
2017-09-30T12:33:29.114Z,95.55
2017-09-30T12:34:29.090Z,95.75
2017-09-30T12:35:29.076Z,96.03
2017-09-30T12:36:29.047Z,96.13
2017-09-30T12:37:29.028Z,95.84
2017-09-30T12:38:29.010Z,96.32
2017-09-30T12:39:28.983Z,96.08
2017-09-30T12:40:28.964Z,96.27
2017-09-30T12:41:28.945Z,96.42
2017-09-30T12:42:28.935Z,96.89
2017-09-30T12:43:28.600Z,96.94
2017-09-30T12:44:28.880Z,96.75
2017-09-30T12:45:28.868Z,96.89
2017-09-30T12:46:28.845Z,96.89
2017-09-30T12:47:28.840Z,97.09
2017-09-30T12:48:28.801Z,97.95
2017-09-30T12:49:28.825Z,97.23
2017-09-30T12:50:28.761Z,97.23
2017-09-30T12:51:28.731Z,98.66
2017-09-30T12:52:28.713Z,99.05
2017-09-30T12:53:28.700Z,98.76
2017-09-30T12:54:28.670Z,99.76
2017-09-30T12:55:28.656Z,99.76